createdAt,value
2022-11-15T00:02:45.134Z,47.28
2022-11-15T00:08:06.429Z,44.13
2022-11-15T00:13:30.622Z,48.42
2022-11-15T00:18:52.714Z,44.03
2022-11-15T00:24:14.141Z,46.78
2022-11-15T00:29:38.712Z,46.42
2022-11-15T00:35:00.094Z,46.13
2022-11-15T00:40:21.264Z,47.92
2022-11-15T00:45:43.915Z,40.28
2022-11-15T00:51:05.161Z,45.45
2022-11-15T00:56:26.618Z,41.45
2022-11-15T01:01:49.441Z,41.20
2022-11-15T01:07:11.072Z,41.88
2022-11-15T01:12:32.882Z,41.30
2022-11-15T01:17:55.852Z,41.85
2022-11-15T01:23:17.029Z,43.58
2022-11-15T01:28:40.650Z,44.50
2022-11-15T01:34:03.415Z,43.78
2022-11-15T01:39:24.693Z,44.03
2022-11-15T01:44:49.462Z,46.38
2022-11-15T01:50:16.447Z,44.33
2022-11-15T01:55:37.845Z,44.60
2022-11-15T02:00:59.274Z,42.03
2022-11-15T02:06:23.286Z,45.13
2022-11-15T02:11:45.917Z,46.30
2022-11-15T02:17:23.374Z,52.45
2022-11-15T02:23:04.832Z,44.80
2022-11-15T02:28:50.459Z,42.13
2022-11-15T02:34:23.701Z,44.92
2022-11-15T02:39:51.273Z,48.38
2022-11-15T02:45:19.005Z,47.75
2022-11-15T02:50:42.048Z,47.85
2022-11-15T02:56:03.594Z,44.25
2022-11-15T03:01:38.676Z,45.42
2022-11-15T03:07:08.589Z,45.92
2022-11-15T03:12:35.886Z,47.08
2022-11-15T03:18:02.371Z,46.95
2022-11-15T03:23:26.468Z,47.00
2022-11-15T03:28:53.565Z,42.00
2022-11-15T03:34:21.908Z,42.38
2022-11-15T03:39:45.596Z,43.05
2022-11-15T03:45:16.122Z,39.88
2022-11-15T03:50:38.074Z,40.33
2022-11-15T03:56:00.737Z,39.38
2022-11-15T04:01:22.201Z,40.08
2022-11-15T04:06:43.899Z,38.58
2022-11-15T04:12:06.691Z,37.08
2022-11-15T04:17:27.920Z,39.30
2022-11-15T04:23:06.374Z,37.28
2022-11-15T04:28:29.292Z,36.90
2022-11-15T04:33:50.772Z,36.83
2022-11-15T04:39:12.348Z,33.28
2022-11-15T04:44:35.165Z,31.05
2022-11-15T04:49:56.508Z,33.22
2022-11-15T04:55:17.903Z,28.83
2022-11-15T05:00:40.879Z,32.58
2022-11-15T05:06:02.107Z,26.58
2022-11-15T05:11:23.567Z,26.15
2022-11-15T05:16:46.396Z,29.60
2022-11-15T05:22:07.543Z,28.92
2022-11-15T05:27:28.836Z,29.05
2022-11-15T05:32:52.477Z,28.88
2022-11-15T05:38:13.775Z,31.17
2022-11-15T05:43:38.300Z,25.58
2022-11-15T05:49:01.591Z,27.27
2022-11-15T05:54:39.834Z,26.85
2022-11-15T06:00:01.990Z,23.57
2022-11-15T06:05:24.539Z,25.45
2022-11-15T06:10:46.116Z,25.30
2022-11-15T06:16:32.934Z,27.17
2022-11-15T06:21:55.897Z,30.45
2022-11-15T06:27:17.129Z,26.55
2022-11-15T06:32:38.558Z,30.17
2022-11-15T06:38:06.255Z,29.08
2022-11-15T06:43:27.918Z,26.05
2022-11-15T06:48:50.214Z,29.42
2022-11-15T06:54:12.917Z,26.55
2022-11-15T06:59:37.760Z,29.30
2022-11-15T07:05:02.032Z,27.30
2022-11-15T07:10:25.500Z,31.98
2022-11-15T07:15:47.136Z,27.95
2022-11-15T07:21:12.263Z,29.63
2022-11-15T07:26:34.756Z,25.98
2022-11-15T07:31:57.029Z,28.00
2022-11-15T07:37:18.776Z,27.00
2022-11-15T07:42:56.863Z,24.88
2022-11-15T07:48:18.055Z,26.17
2022-11-15T07:53:39.298Z,23.80
2022-11-15T07:59:02.144Z,23.70
2022-11-15T08:04:23.594Z,27.00
2022-11-15T08:09:44.859Z,26.60
2022-11-15T08:15:08.392Z,23.48
2022-11-15T08:20:31.412Z,26.23
2022-11-15T08:25:52.593Z,23.02
2022-11-15T08:31:17.962Z,24.90
2022-11-15T08:36:45.756Z,28.63
2022-11-15T08:42:07.542Z,32.17
2022-11-15T08:47:30.437Z,27.58
2022-11-15T08:52:52.007Z,24.63
2022-11-15T08:58:13.798Z,22.05
2022-11-15T09:03:36.747Z,23.30
2022-11-15T09:09:03.211Z,26.08
2022-11-15T09:14:27.500Z,24.63
2022-11-15T09:19:50.710Z,22.35
2022-11-15T09:25:13.216Z,22.02
2022-11-15T09:30:34.991Z,20.48
2022-11-15T09:36:02.826Z,22.17
2022-11-15T09:41:47.809Z,23.48
2022-11-15T09:47:30.904Z,25.70
2022-11-15T09:52:57.700Z,23.98
2022-11-15T09:58:09.448Z,25.38
2022-11-15T10:03:14.959Z,21.17
2022-11-15T10:08:33.899Z,21.30
2022-11-15T10:13:42.358Z,22.33
2022-11-15T10:18:57.931Z,21.55
2022-11-15T10:24:02.065Z,21.25
2022-11-15T10:29:04.882Z,18.73
2022-11-15T10:34:15.367Z,22.85
2022-11-15T10:39:19.660Z,23.60
2022-11-15T10:44:26.329Z,22.15
2022-11-15T10:49:30.918Z,21.73
2022-11-15T10:54:40.472Z,22.55
2022-11-15T10:59:48.301Z,21.63
2022-11-15T11:04:52.892Z,19.10
2022-11-15T11:10:02.827Z,23.58
2022-11-15T11:15:14.011Z,20.20
2022-11-15T11:20:24.519Z,19.42
2022-11-15T11:25:37.730Z,21.42
2022-11-15T11:30:49.680Z,19.85
2022-11-15T11:36:59.893Z,19.25
2022-11-15T11:42:16.937Z,20.80
2022-11-15T11:47:26.360Z,18.58
2022-11-15T11:52:41.112Z,18.98
2022-11-15T11:57:50.598Z,21.58
2022-11-15T12:03:15.075Z,23.63
2022-11-15T12:08:29.910Z,18.58
2022-11-15T12:13:41.662Z,20.48
2022-11-15T12:18:49.471Z,17.02
2022-11-15T12:24:01.194Z,17.97
2022-11-15T12:29:12.884Z,14.90
2022-11-15T12:34:32.207Z,17.52
2022-11-15T12:40:23.087Z,17.20
2022-11-15T12:45:30.302Z,16.27
2022-11-15T12:50:58.982Z,20.30
2022-11-15T12:56:26.453Z,16.00
2022-11-15T13:02:08.963Z,19.08
2022-11-15T13:07:50.654Z,18.77
2022-11-15T13:12:57.692Z,17.52
2022-11-15T13:18:02.351Z,16.52
2022-11-15T13:23:11.817Z,15.48
2022-11-15T13:28:33.513Z,17.27
2022-11-15T13:33:40.844Z,21.42
2022-11-15T13:38:44.143Z,18.30
2022-11-15T13:43:49.029Z,17.13
2022-11-15T13:48:58.303Z,18.45
2022-11-15T13:54:06.084Z,25.65
2022-11-15T13:59:20.446Z,19.92
2022-11-15T14:04:27.238Z,17.58
2022-11-15T14:09:36.395Z,15.18
2022-11-15T14:14:47.488Z,15.95
2022-11-15T14:19:53.454Z,14.95
2022-11-15T14:25:18.747Z,18.95
2022-11-15T14:30:23.328Z,15.77
2022-11-15T14:35:26.382Z,21.90
2022-11-15T14:40:29.347Z,16.45
2022-11-15T14:45:33.787Z,15.60
2022-11-15T14:50:37.376Z,15.93
2022-11-15T14:55:40.372Z,13.25
2022-11-15T15:00:44.843Z,14.98
2022-11-15T15:05:47.872Z,16.02
2022-11-15T15:10:50.663Z,21.33
2022-11-15T15:15:55.115Z,14.65
2022-11-15T15:21:00.921Z,18.27
2022-11-15T15:26:03.896Z,17.85
2022-11-15T15:31:08.162Z,21.65
2022-11-15T15:36:13.185Z,18.10
2022-11-15T15:41:17.601Z,18.80
2022-11-15T15:46:22.291Z,16.35
2022-11-15T15:51:25.068Z,18.75
2022-11-15T15:56:29.134Z,20.83
2022-11-15T16:01:33.473Z,18.05
2022-11-15T16:06:39.281Z,20.75
2022-11-15T16:11:42.455Z,17.27
2022-11-15T16:16:46.573Z,16.13
2022-11-15T16:21:49.370Z,17.65
2022-11-15T16:26:53.498Z,17.65
2022-11-15T16:31:58.100Z,18.23
2022-11-15T16:37:01.174Z,17.48
2022-11-15T16:42:03.969Z,16.02
2022-11-15T16:47:17.194Z,18.63
2022-11-15T16:52:21.495Z,17.42
2022-11-15T16:57:24.643Z,17.35
2022-11-15T17:02:28.791Z,14.52
2022-11-15T17:07:31.623Z,18.48
2022-11-15T17:12:34.569Z,17.10
2022-11-15T17:17:38.804Z,18.70
2022-11-15T17:22:41.734Z,15.15
2022-11-15T17:27:47.469Z,15.40
2022-11-15T17:32:52.701Z,14.98
2022-11-15T17:37:55.802Z,16.95
2022-11-15T17:42:58.509Z,15.60
2022-11-15T17:48:02.649Z,16.52
2022-11-15T17:53:05.358Z,16.13
2022-11-15T17:58:09.251Z,14.55
2022-11-15T18:03:13.589Z,19.42
2022-11-15T18:08:17.515Z,17.30
2022-11-15T18:13:20.264Z,14.43
2022-11-15T18:18:24.399Z,20.23
2022-11-15T18:23:28.709Z,18.73
2022-11-15T18:28:33.861Z,19.58
2022-11-15T18:33:38.868Z,18.38
2022-11-15T18:38:42.557Z,17.23
2022-11-15T18:43:45.763Z,15.40
2022-11-15T18:48:51.810Z,17.92
2022-11-15T18:53:55.490Z,15.77
2022-11-15T18:59:00.725Z,17.00
2022-11-15T19:04:07.795Z,17.52
2022-11-15T19:09:13.909Z,15.70
2022-11-15T19:14:18.819Z,15.27
2022-11-15T19:19:57.831Z,15.15
2022-11-15T19:25:00.860Z,16.88
2022-11-15T19:30:04.303Z,16.73
2022-11-15T19:35:12.170Z,19.90
2022-11-15T19:40:15.342Z,17.73
2022-11-15T19:45:18.580Z,15.90
2022-11-15T19:50:23.012Z,18.67
2022-11-15T19:55:28.131Z,19.80
2022-11-15T20:00:30.977Z,17.58
2022-11-15T20:05:35.120Z,14.82
2022-11-15T20:10:37.907Z,17.08
2022-11-15T20:15:40.701Z,19.02
2022-11-15T20:20:45.331Z,20.77
2022-11-15T20:25:49.135Z,18.73
2022-11-15T20:30:54.101Z,18.92
2022-11-15T20:35:58.294Z,21.75
2022-11-15T20:41:01.646Z,20.10
2022-11-15T20:46:04.486Z,20.95
2022-11-15T20:51:12.129Z,21.77
2022-11-15T20:56:17.169Z,19.50
2022-11-15T21:01:23.905Z,18.98
2022-11-15T21:07:46.530Z,23.23
2022-11-15T21:12:23.376Z,22.50
2022-11-15T21:17:26.241Z,20.90
2022-11-15T21:22:30.690Z,25.27
2022-11-15T21:27:33.863Z,20.45
2022-11-15T21:32:37.492Z,22.80
2022-11-15T21:37:42.337Z,20.70
2022-11-15T21:42:45.307Z,24.88
2022-11-15T21:47:48.169Z,22.33
2022-11-15T21:52:52.212Z,23.02
2022-11-15T21:57:55.028Z,23.08
2022-11-15T22:02:57.732Z,23.13
2022-11-15T22:08:01.938Z,24.02
2022-11-15T22:13:04.635Z,23.60
2022-11-15T22:18:07.771Z,24.85
2022-11-15T22:23:12.124Z,24.08
2022-11-15T22:28:15.089Z,28.65
2022-11-15T22:33:20.912Z,25.75
2022-11-15T22:38:25.758Z,24.60
2022-11-15T22:43:28.890Z,23.02
2022-11-15T22:48:34.294Z,24.80
2022-11-15T22:53:38.885Z,23.85
2022-11-15T22:58:41.778Z,24.33
2022-11-15T23:03:44.739Z,26.40
2022-11-15T23:08:49.096Z,25.02
2022-11-15T23:13:52.942Z,25.67
2022-11-15T23:18:58.819Z,24.52
2022-11-15T23:24:03.253Z,24.85
2022-11-15T23:29:07.173Z,24.10
2022-11-15T23:34:10.059Z,27.00
2022-11-15T23:39:14.363Z,27.85
2022-11-15T23:44:17.243Z,29.40
2022-11-15T23:49:20.648Z,26.05
2022-11-15T23:54:24.957Z,27.17
2022-11-15T23:59:27.834Z,25.63
